Time;durP1;ratioP1;P1;durP2;ratioP2;P2;SDS_P1;SDS_P2;PMS_P1;PMS_P2;Temp;Humidity;BMP_temperature;BMP_pressure;BME280_temperature;BME280_humidity;BME280_pressure;Samples;Min_cycle;Max_cycle;Signal;HPM_P1;HPM_P2
2021/08/13 00:00:36;;;;;;;1.17;1.02;;;19.00;83.40;;;;;;5073563;28;20016;-87
2021/08/13 00:03:02;;;;;;;1.20;1.10;;;18.90;83.50;;;;;;5073410;28;20372;-85
2021/08/13 00:05:27;;;;;;;1.02;0.82;;;18.90;83.60;;;;;;5073497;28;20024;-85
2021/08/13 00:07:53;;;;;;;1.40;0.98;;;18.90;83.60;;;;;;5073662;28;20036;-85
2021/08/13 00:10:18;;;;;;;0.88;0.82;;;18.90;83.50;;;;;;5073327;28;20453;-87
2021/08/13 00:12:44;;;;;;;0.65;0.63;;;18.90;83.30;;;;;;5073593;28;20031;-85
2021/08/13 00:15:09;;;;;;;0.50;0.40;;;18.90;83.30;;;;;;5077155;28;20106;-85
2021/08/13 00:17:35;;;;;;;0.63;0.57;;;18.90;83.20;;;;;;5077145;28;20457;-86
2021/08/13 00:20:01;;;;;;;0.60;0.60;;;18.90;83.20;;;;;;5077323;28;20040;-85
2021/08/13 00:22:26;;;;;;;0.82;0.77;;;18.90;83.10;;;;;;5076871;28;20049;-86
2021/08/13 00:24:52;;;;;;;1.02;0.93;;;18.90;83.20;;;;;;5076928;28;20028;-86
2021/08/13 00:27:18;;;;;;;0.75;0.75;;;18.80;83.20;;;;;;5058827;28;20020;-86
2021/08/13 00:29:43;;;;;;;1.65;1.10;;;18.80;83.40;;;;;;5076878;28;20021;-86
2021/08/13 00:32:09;;;;;;;0.95;0.90;;;18.70;83.50;;;;;;5058814;28;20561;-86
2021/08/13 00:34:34;;;;;;;0.75;0.75;;;18.70;83.60;;;;;;5077505;28;20100;-87
2021/08/13 00:37:00;;;;;;;0.70;0.70;;;18.60;83.60;;;;;;5058961;28;20056;-86
2021/08/13 00:39:25;;;;;;;0.77;0.63;;;18.60;83.80;;;;;;5076999;28;20020;-86
2021/08/13 00:41:51;;;;;;;0.90;0.90;;;18.50;83.80;;;;;;5058309;28;20041;-85
2021/08/13 00:44:17;;;;;;;0.70;0.70;;;18.50;83.90;;;;;;5076788;28;20083;-86
2021/08/13 00:46:42;;;;;;;1.25;1.13;;;18.50;83.90;;;;;;5076974;28;20469;-87
2021/08/13 00:49:08;;;;;;;0.70;0.70;;;18.40;83.90;;;;;;5076948;28;20025;-86
2021/08/13 00:51:35;;;;;;;1.55;0.70;;;18.40;84.00;;;;;;5076680;28;20426;-86
2021/08/13 00:54:00;;;;;;;1.10;1.00;;;18.40;84.00;;;;;;5076607;28;20500;-87
2021/08/13 00:56:26;;;;;;;0.70;0.70;;;18.30;84.10;;;;;;5076127;28;20028;-87
2021/08/13 00:58:52;;;;;;;1.13;0.98;;;18.30;84.10;;;;;;5076716;28;20020;-87
2021/08/13 01:01:18;;;;;;;0.80;0.80;;;18.30;84.10;;;;;;5076518;28;20385;-88
2021/08/13 01:03:44;;;;;;;0.90;0.82;;;18.20;84.20;;;;;;5058497;28;20021;-86
2021/08/13 01:06:14;;;;;;;1.25;1.00;;;18.20;84.30;;;;;;5076049;28;20488;-85
2021/08/13 01:08:40;;;;;;;1.73;1.30;;;18.20;84.30;;;;;;5076122;28;20069;-86
2021/08/13 01:11:17;;;;;;;1.10;0.85;;;18.20;84.30;;;;;;5075867;28;20043;-87
2021/08/13 01:13:51;;;;;;;0.50;0.50;;;18.20;84.30;;;;;;5058367;28;20051;-86
2021/08/13 01:16:20;;;;;;;0.68;0.55;;;18.20;84.20;;;;;;5076199;28;20017;-86
2021/08/13 01:18:51;;;;;;;0.50;0.50;;;18.20;84.20;;;;;;5076053;28;20485;-86
2021/08/13 01:21:40;;;;;;;0.40;0.40;;;18.20;84.10;;;;;;5076053;28;20064;-86
2021/08/13 01:24:14;;;;;;;1.02;0.82;;;18.20;84.10;;;;;;5075603;28;20473;-87
2021/08/13 01:26:51;;;;;;;0.93;0.70;;;18.20;84.20;;;;;;5075947;28;20021;-86
2021/08/13 01:29:30;;;;;;;1.15;0.95;;;18.20;84.10;;;;;;5075929;28;20028;-86
2021/08/13 01:32:22;;;;;;;0.70;0.68;;;18.30;84.00;;;;;;5075678;28;20028;-86
2021/08/13 01:34:53;;;;;;;1.15;0.80;;;18.30;83.90;;;;;;5073090;28;20090;-85
2021/08/13 01:37:21;;;;;;;1.13;0.80;;;18.30;83.90;;;;;;5075776;28;20062;-86
2021/08/13 01:39:48;;;;;;;0.80;0.80;;;18.30;83.90;;;;;;5073952;28;20032;-86
2021/08/13 01:42:15;;;;;;;0.73;0.63;;;18.40;84.00;;;;;;5075391;28;20029;-86
2021/08/13 01:44:42;;;;;;;1.20;1.02;;;18.40;84.00;;;;;;5057639;28;20017;-86
2021/08/13 01:47:08;;;;;;;0.85;0.73;;;18.40;84.00;;;;;;5075532;28;20024;-86
2021/08/13 01:49:38;;;;;;;0.90;0.90;;;18.40;84.00;;;;;;5075397;28;20025;-86
2021/08/13 01:52:04;;;;;;;0.88;0.77;;;18.40;84.00;;;;;;5075143;28;20036;-86
2021/08/13 01:54:31;;;;;;;0.90;0.90;;;18.40;84.00;;;;;;5075017;28;20021;-85
2021/08/13 01:56:57;;;;;;;0.40;0.40;;;18.40;84.10;;;;;;5075290;28;20465;-86
2021/08/13 01:59:23;;;;;;;1.00;0.90;;;18.40;84.30;;;;;;5075108;28;20035;-86
2021/08/13 02:01:49;;;;;;;0.63;0.63;;;18.40;84.30;;;;;;5075060;28;20032;-86
2021/08/13 02:04:19;;;;;;;0.68;0.68;;;18.30;84.30;;;;;;5057638;28;20017;-86
2021/08/13 02:06:46;;;;;;;0.90;0.90;;;18.20;84.40;;;;;;5075057;28;20059;-86
2021/08/13 02:09:13;;;;;;;0.77;0.70;;;18.20;84.50;;;;;;5074581;28;20021;-86
2021/08/13 02:11:39;;;;;;;0.63;0.60;;;18.20;84.60;;;;;;5057463;28;20043;-87
2021/08/13 02:14:04;;;;;;;1.05;0.90;;;18.20;84.70;;;;;;5075100;28;20473;-87
2021/08/13 02:16:32;;;;;;;0.90;0.73;;;18.10;84.70;;;;;;5075237;28;20024;-87
2021/08/13 02:19:15;;;;;;;1.08;0.95;;;18.10;84.80;;;;;;5075010;28;20013;-87
2021/08/13 02:21:44;;;;;;;0.93;0.80;;;18.00;84.80;;;;;;5075074;28;20068;-87
2021/08/13 02:24:10;;;;;;;0.65;0.65;;;18.00;85.00;;;;;;5078071;28;20017;-88
2021/08/13 02:26:36;;;;;;;0.88;0.88;;;17.90;85.00;;;;;;5082161;28;20025;-88
2021/08/13 02:29:02;;;;;;;0.80;0.80;;;17.90;85.10;;;;;;5080808;28;20025;-88
2021/08/13 02:31:28;;;;;;;1.10;0.93;;;17.90;85.20;;;;;;5082558;28;20024;-88
2021/08/13 02:33:54;;;;;;;0.68;0.68;;;17.80;85.10;;;;;;5075543;28;20029;-88
2021/08/13 02:36:29;;;;;;;1.17;0.70;;;17.80;85.20;;;;;;5074159;28;20127;-89
2021/08/13 02:39:02;;;;;;;0.85;0.73;;;17.80;85.30;;;;;;5074951;28;20016;-88
2021/08/13 02:41:32;;;;;;;0.93;0.85;;;17.80;85.30;;;;;;5074533;28;20202;-87
2021/08/13 02:43:59;;;;;;;0.63;0.63;;;17.80;85.40;;;;;;5074820;28;20021;-89
2021/08/13 02:46:49;;;;;;;0.73;0.73;;;17.70;85.30;;;;;;5074888;28;20099;-88
2021/08/13 02:49:16;;;;;;;0.75;0.65;;;17.70;85.30;;;;;;5056810;28;20485;-88
2021/08/13 02:51:43;;;;;;;1.02;0.88;;;17.70;85.40;;;;;;5074430;28;20028;-87
2021/08/13 02:54:21;;;;;;;0.70;0.70;;;17.60;85.40;;;;;;5074403;28;20103;-87
2021/08/13 02:56:49;;;;;;;1.45;1.00;;;17.70;85.60;;;;;;5074306;28;20028;-87
2021/08/13 02:59:18;;;;;;;0.45;0.45;;;17.60;85.60;;;;;;5074275;28;20021;-87
2021/08/13 03:01:45;;;;;;;0.60;0.60;;;17.60;85.70;;;;;;5074439;28;20039;-87
2021/08/13 03:04:12;;;;;;;1.10;1.00;;;17.60;85.80;;;;;;5074768;28;20265;-87
2021/08/13 03:06:39;;;;;;;1.30;1.00;;;17.50;85.80;;;;;;5073902;28;20031;-88
2021/08/13 03:09:08;;;;;;;1.20;0.88;;;17.50;85.80;;;;;;5074281;28;20050;-87
2021/08/13 03:11:36;;;;;;;0.80;0.75;;;17.50;85.80;;;;;;5074395;28;20056;-88
2021/08/13 03:14:03;;;;;;;1.52;1.42;;;17.50;85.80;;;;;;5056360;28;20083;-88
2021/08/13 03:16:31;;;;;;;1.13;0.95;;;17.50;85.80;;;;;;5074070;28;20027;-87
2021/08/13 03:18:58;;;;;;;1.93;0.93;;;17.50;85.90;;;;;;5074207;28;20023;-87
2021/08/13 03:21:24;;;;;;;1.08;1.00;;;17.40;85.90;;;;;;5073257;28;20036;-86
2021/08/13 03:23:50;;;;;;;0.82;0.75;;;17.40;86.60;;;;;;5073937;28;20036;-86
2021/08/13 03:26:16;;;;;;;1.08;0.75;;;17.40;86.00;;;;;;5073965;28;20086;-86
2021/08/13 03:28:41;;;;;;;0.82;0.80;;;17.40;86.00;;;;;;5074170;28;20457;-85
2021/08/13 03:31:07;;;;;;;1.52;1.10;;;17.40;86.00;;;;;;5074247;28;20504;-85
2021/08/13 03:33:35;;;;;;;1.30;1.20;;;17.30;86.10;;;;;;5073811;28;20029;-86
2021/08/13 03:36:01;;;;;;;1.02;0.85;;;17.40;86.10;;;;;;5055637;28;20462;-86
2021/08/13 03:38:26;;;;;;;1.40;1.20;;;17.30;86.20;;;;;;5074107;28;20048;-86
2021/08/13 03:40:52;;;;;;;1.02;0.93;;;17.30;86.30;;;;;;5073964;28;20033;-86
2021/08/13 03:43:18;;;;;;;1.25;0.90;;;17.20;86.30;;;;;;5073922;28;20029;-85
2021/08/13 03:45:43;;;;;;;1.75;1.05;;;17.20;86.30;;;;;;5056088;28;20013;-85
2021/08/13 03:48:09;;;;;;;2.08;1.42;;;17.20;86.30;;;;;;5074895;28;20028;-85
2021/08/13 03:50:34;;;;;;;1.95;1.10;;;17.20;86.40;;;;;;5077318;28;20017;-86
2021/08/13 03:53:00;;;;;;;1.45;1.35;;;17.20;86.40;;;;;;5077532;28;20465;-86
2021/08/13 03:55:25;;;;;;;0.85;0.85;;;17.20;86.40;;;;;;5077686;28;20021;-87
2021/08/13 03:57:51;;;;;;;1.13;1.02;;;17.20;86.40;;;;;;5077669;28;20366;-86
2021/08/13 04:00:17;;;;;;;0.90;0.90;;;17.20;86.50;;;;;;5077806;28;20021;-86
2021/08/13 04:02:42;;;;;;;1.05;0.80;;;17.20;86.50;;;;;;5077529;28;20033;-88
2021/08/13 04:05:09;;;;;;;1.45;1.08;;;17.20;86.50;;;;;;5077228;28;20032;-87
2021/08/13 04:07:34;;;;;;;2.03;1.60;;;17.20;86.50;;;;;;5077748;28;20025;-87
2021/08/13 04:10:00;;;;;;;1.13;1.00;;;17.30;86.50;;;;;;5077826;28;20028;-86
2021/08/13 04:12:25;;;;;;;2.08;1.45;;;17.30;86.50;;;;;;5077556;28;20035;-88
2021/08/13 04:14:51;;;;;;;1.23;1.13;;;17.30;86.40;;;;;;5077408;28;20029;-86
2021/08/13 04:17:16;;;;;;;1.25;1.15;;;17.40;86.30;;;;;;5077239;28;20020;-86
2021/08/13 04:19:42;;;;;;;1.00;1.00;;;17.40;86.20;;;;;;5077296;28;20381;-88
2021/08/13 04:22:08;;;;;;;1.15;1.08;;;17.50;86.30;;;;;;5059265;28;20040;-88
2021/08/13 04:24:34;;;;;;;1.23;1.13;;;17.50;86.30;;;;;;5077613;28;20017;-88
2021/08/13 04:27:00;;;;;;;2.38;1.50;;;17.50;86.30;;;;;;5059550;28;20122;-87
2021/08/13 04:29:26;;;;;;;1.15;1.05;;;17.60;86.20;;;;;;5077977;28;20032;-88
2021/08/13 04:31:52;;;;;;;1.45;1.23;;;17.60;86.10;;;;;;5078568;28;20385;-88
2021/08/13 04:34:18;;;;;;;1.38;1.23;;;17.60;85.90;;;;;;5078800;28;20016;-89
2021/08/13 04:36:43;;;;;;;1.75;1.40;;;17.70;85.90;;;;;;5078069;28;20029;-88
2021/08/13 04:39:10;;;;;;;1.85;1.58;;;17.80;86.00;;;;;;5078556;28;20469;-89
2021/08/13 04:41:38;;;;;;;1.83;1.55;;;17.90;85.70;;;;;;5077794;28;20122;-87
2021/08/13 04:44:04;;;;;;;2.40;1.55;;;18.00;85.50;;;;;;5077563;28;20025;-89
2021/08/13 04:46:29;;;;;;;2.67;1.83;;;18.20;85.30;;;;;;5077414;28;20017;-89
2021/08/13 04:48:55;;;;;;;2.78;1.80;;;18.30;85.20;;;;;;5076511;28;20469;-88
2021/08/13 04:51:20;;;;;;;1.95;1.60;;;18.40;85.10;;;;;;5077239;28;20017;-88
2021/08/13 04:53:46;;;;;;;2.95;1.50;;;18.50;84.90;;;;;;5076892;28;20373;-87
2021/08/13 04:56:11;;;;;;;2.00;1.65;;;18.60;84.80;;;;;;5076809;28;20016;-87
2021/08/13 04:58:37;;;;;;;2.78;1.88;;;18.70;84.60;;;;;;5058310;28;20052;-87
2021/08/13 05:01:02;;;;;;;2.25;1.70;;;18.90;84.60;;;;;;5076372;28;20036;-85
2021/08/13 05:03:28;;;;;;;2.25;1.88;;;19.00;84.50;;;;;;5076067;28;20047;-87
2021/08/13 05:05:53;;;;;;;3.22;2.10;;;19.10;84.30;;;;;;5058650;28;20017;-85
2021/08/13 05:08:19;;;;;;;2.05;1.77;;;19.20;84.20;;;;;;5076121;28;20104;-87
2021/08/13 05:10:45;;;;;;;2.20;1.73;;;19.30;84.20;;;;;;5076485;28;20111;-86
2021/08/13 05:13:10;;;;;;;3.97;2.00;;;19.30;84.20;;;;;;5058614;28;20378;-84
2021/08/13 05:15:36;;;;;;;4.03;2.50;;;19.40;84.20;;;;;;5058349;28;20074;-85
2021/08/13 05:18:05;;;;;;;3.45;2.17;;;19.40;84.10;;;;;;5075657;28;20037;-86
2021/08/13 05:20:30;;;;;;;;;;;19.50;84.20;;;;;;5058306;28;20380;-85
2021/08/13 05:22:56;;;;;;;3.13;2.10;;;19.50;84.10;;;;;;5075517;28;20015;-84
2021/08/13 05:25:22;;;;;;;3.00;2.35;;;19.50;84.20;;;;;;5077000;28;20495;-87
2021/08/13 05:27:48;;;;;;;4.25;2.30;;;19.50;84.20;;;;;;5076873;28;20077;-87
2021/08/13 05:30:14;;;;;;;2.80;2.05;;;19.60;84.30;;;;;;5076643;28;20021;-88
2021/08/13 05:32:40;;;;;;;3.90;2.42;;;19.60;84.90;;;;;;5076153;28;20024;-90
2021/08/13 05:35:06;;;;;;;3.88;2.22;;;19.60;84.40;;;;;;5076365;28;20021;-87
2021/08/13 05:37:32;;;;;;;3.55;2.38;;;19.60;84.60;;;;;;5077796;28;20028;-90
2021/08/13 05:39:58;;;;;;;3.05;2.20;;;19.60;84.50;;;;;;5076953;28;20024;-87
2021/08/13 05:42:23;;;;;;;2.95;2.00;;;19.50;84.60;;;;;;5076002;28;20040;-86
2021/08/13 05:44:49;;;;;;;2.78;1.80;;;19.60;84.60;;;;;;5075614;28;20427;-87
2021/08/13 05:47:14;;;;;;;3.30;2.10;;;19.60;84.50;;;;;;5075417;28;20060;-85
2021/08/13 05:49:40;;;;;;;2.45;1.90;;;19.70;84.40;;;;;;5075488;28;20029;-86
2021/08/13 05:52:08;;;;;;;2.05;1.67;;;19.70;84.20;;;;;;5075520;28;20020;-86
2021/08/13 05:54:34;;;;;;;2.45;1.85;;;19.70;84.00;;;;;;5075228;28;20055;-87
2021/08/13 05:56:59;;;;;;;2.45;1.50;;;19.80;84.00;;;;;;5075280;28;20021;-87
2021/08/13 05:59:25;;;;;;;3.17;1.67;;;19.80;83.90;;;;;;5075504;28;20454;-86
2021/08/13 06:01:50;;;;;;;1.33;1.15;;;19.80;83.70;;;;;;5075308;28;20090;-87
2021/08/13 06:04:16;;;;;;;2.25;1.80;;;19.90;83.80;;;;;;5075379;28;20021;-87
2021/08/13 06:06:43;;;;;;;2.08;1.20;;;19.90;83.70;;;;;;5075225;28;20028;-88
2021/08/13 06:09:09;;;;;;;1.60;1.13;;;19.90;83.80;;;;;;5075246;28;20140;-87
2021/08/13 06:11:34;;;;;;;1.63;1.30;;;19.90;83.70;;;;;;5074572;28;20530;-87
2021/08/13 06:13:59;;;;;;;1.88;1.20;;;20.00;83.70;;;;;;5075497;28;20026;-87
2021/08/13 06:16:25;;;;;;;1.70;1.40;;;19.90;83.70;;;;;;5075805;28;20027;-88
2021/08/13 06:18:51;;;;;;;1.70;1.20;;;20.00;83.70;;;;;;5076180;28;20042;-88
2021/08/13 06:21:16;;;;;;;1.45;1.20;;;19.90;83.70;;;;;;5075253;28;20056;-87
2021/08/13 06:23:42;;;;;;;1.17;0.88;;;20.00;83.70;;;;;;5078819;28;20048;-88
2021/08/13 06:26:11;;;;;;;1.17;1.00;;;20.00;83.70;;;;;;5077618;28;20017;-87
2021/08/13 06:28:37;;;;;;;2.42;1.55;;;20.00;83.70;;;;;;5075339;28;20055;-89
2021/08/13 06:31:03;;;;;;;2.35;1.20;;;20.00;83.70;;;;;;5076898;28;20059;-88
2021/08/13 06:33:29;;;;;;;1.55;1.02;;;20.00;83.80;;;;;;5076828;28;20024;-87
2021/08/13 06:35:55;;;;;;;1.23;1.10;;;20.00;83.70;;;;;;5077715;28;20027;-89
2021/08/13 06:38:20;;;;;;;1.42;1.20;;;20.00;83.80;;;;;;5077324;28;20016;-86
2021/08/13 06:40:46;;;;;;;1.33;0.88;;;20.00;83.80;;;;;;5076586;28;20012;-89
2021/08/13 06:43:11;;;;;;;1.55;1.35;;;20.00;83.80;;;;;;5078338;28;20103;-89
2021/08/13 06:45:37;;;;;;;3.63;1.40;;;20.00;83.90;;;;;;5078320;28;20495;-88
2021/08/13 06:48:02;;;;;;;1.90;1.40;;;19.90;83.80;;;;;;5077362;28;20028;-89
2021/08/13 06:50:28;;;;;;;1.45;1.35;;;20.00;83.80;;;;;;5076083;28;20039;-89
2021/08/13 06:52:54;;;;;;;1.38;1.27;;;19.90;83.80;;;;;;5075106;28;20052;-88
2021/08/13 06:55:19;;;;;;;1.15;1.05;;;19.80;83.80;;;;;;5078178;28;20025;-84
2021/08/13 06:57:45;;;;;;;1.48;1.33;;;19.80;84.00;;;;;;5075779;28;20043;-87
2021/08/13 07:00:12;;;;;;;2.42;1.40;;;19.80;83.90;;;;;;5075099;28;20547;-87
2021/08/13 07:02:39;;;;;;;1.15;0.70;;;19.80;84.00;;;;;;5074957;28;20060;-88
2021/08/13 07:05:08;;;;;;;2.08;1.35;;;19.80;84.00;;;;;;5076000;28;20020;-87
2021/08/13 07:07:33;;;;;;;1.38;1.13;;;19.90;83.90;;;;;;5075030;28;20036;-87
2021/08/13 07:10:04;;;;;;;2.53;1.40;;;19.90;83.80;;;;;;5075104;28;20420;-88
2021/08/13 07:12:29;;;;;;;1.65;1.40;;;20.00;83.70;;;;;;5074017;28;20031;-87
2021/08/13 07:14:55;;;;;;;1.67;1.50;;;20.00;83.70;;;;;;5074416;28;20088;-84
2021/08/13 07:17:20;;;;;;;1.30;1.20;;;20.00;83.70;;;;;;5073889;28;20078;-87
2021/08/13 07:19:46;;;;;;;1.63;1.30;;;20.00;83.70;;;;;;5074667;28;20044;-86
2021/08/13 07:22:11;;;;;;;2.00;1.40;;;20.00;83.70;;;;;;5075754;28;20048;-88
2021/08/13 07:24:37;;;;;;;2.95;1.50;;;20.10;83.50;;;;;;5076402;28;20028;-88
2021/08/13 07:27:03;;;;;;;2.25;1.60;;;20.10;83.60;;;;;;5075737;28;20170;-87
2021/08/13 07:29:28;;;;;;;1.40;1.13;;;20.10;83.50;;;;;;5074839;28;20021;-85
2021/08/13 07:31:55;;;;;;;1.80;1.30;;;20.10;83.60;;;;;;5075312;28;20017;-86
2021/08/13 07:34:21;;;;;;;1.40;1.25;;;20.10;83.60;;;;;;5075303;28;20062;-87
2021/08/13 07:36:46;;;;;;;3.25;1.92;;;20.10;83.70;;;;;;5075008;28;20025;-87
2021/08/13 07:39:12;;;;;;;3.30;2.15;;;20.20;83.60;;;;;;5073965;28;20028;-85
2021/08/13 07:41:38;;;;;;;2.45;1.70;;;20.20;83.50;;;;;;5074025;28;20078;-88
2021/08/13 07:44:03;;;;;;;2.53;1.70;;;20.20;83.50;;;;;;5075469;28;20099;-86
2021/08/13 07:46:29;;;;;;;2.28;1.30;;;20.20;83.50;;;;;;5077923;28;20039;-88
2021/08/13 07:48:54;;;;;;;2.92;1.52;;;20.30;83.60;;;;;;5077640;28;20067;-79
2021/08/13 07:51:20;;;;;;;2.38;1.48;;;20.20;83.60;;;;;;5074229;28;20028;-87
2021/08/13 07:53:45;;;;;;;2.58;1.88;;;20.20;83.70;;;;;;5075661;28;20078;-88
2021/08/13 07:56:11;;;;;;;2.63;2.20;;;20.20;83.80;;;;;;5073768;28;20024;-82
2021/08/13 07:58:37;;;;;;;3.47;1.98;;;20.30;83.80;;;;;;5073562;28;20021;-88
2021/08/13 08:01:03;;;;;;;1.88;1.50;;;20.30;83.70;;;;;;5073322;28;20033;-87
2021/08/13 08:03:28;;;;;;;2.08;1.58;;;20.30;83.70;;;;;;5055434;28;20020;-84
2021/08/13 08:05:54;;;;;;;3.42;2.35;;;20.30;83.70;;;;;;5073373;28;20017;-84
2021/08/13 08:08:19;;;;;;;3.65;2.85;;;20.30;83.80;;;;;;5073440;28;20028;-86
2021/08/13 08:10:47;;;;;;;2.35;1.60;;;20.30;83.90;;;;;;5073213;28;20025;-86
2021/08/13 08:13:17;;;;;;;1.67;1.45;;;20.30;83.90;;;;;;5073588;28;20074;-88
2021/08/13 08:15:43;;;;;;;;;;;20.30;83.80;;;;;;5073881;28;20122;-88
2021/08/13 08:18:09;;;;;;;1.70;1.27;;;20.30;83.90;;;;;;5073765;28;19905;-84
2021/08/13 08:20:38;;;;;;;1.92;1.38;;;20.40;83.90;;;;;;5073005;28;20021;-85
2021/08/13 08:23:04;;;;;;;2.40;1.52;;;20.60;83.70;;;;;;5072906;28;20091;-84
2021/08/13 08:25:30;;;;;;;1.52;1.30;;;20.70;83.30;;;;;;5073008;28;20048;-84
2021/08/13 08:27:56;;;;;;;3.17;1.70;;;20.80;83.20;;;;;;5072816;28;20021;-84
2021/08/13 08:30:21;;;;;;;2.13;1.52;;;20.80;83.10;;;;;;5073004;28;20024;-85
2021/08/13 08:32:47;;;;;;;2.13;1.38;;;20.90;83.10;;;;;;5055020;28;20449;-85
2021/08/13 08:35:13;;;;;;;1.55;1.23;;;20.90;83.00;;;;;;5075832;28;20028;-86
2021/08/13 08:38:02;;;;;;;1.40;1.20;;;21.00;83.00;;;;;;5076575;28;20021;-88
2021/08/13 08:40:30;;;;;;;1.65;0.85;;;21.10;83.00;;;;;;5075892;28;20047;-87
2021/08/13 08:42:58;;;;;;;1.48;0.90;;;21.10;82.90;;;;;;5076455;28;20469;-85
2021/08/13 08:45:28;;;;;;;1.20;0.85;;;21.10;82.90;;;;;;5076693;28;20474;-86
2021/08/13 08:47:57;;;;;;;2.53;1.85;;;21.20;82.80;;;;;;5076305;28;20497;-85
2021/08/13 08:50:24;;;;;;;0.85;0.80;;;21.20;82.70;;;;;;5076161;28;20021;-86
2021/08/13 08:52:51;;;;;;;1.20;1.02;;;21.20;82.90;;;;;;5058373;28;20016;-88
2021/08/13 08:55:17;;;;;;;0.95;0.95;;;21.20;82.90;;;;;;5076553;28;20040;-79
2021/08/13 08:57:43;;;;;;;1.50;1.17;;;21.30;82.90;;;;;;5076052;28;20025;-83
2021/08/13 09:00:09;;;;;;;1.60;1.00;;;21.40;82.80;;;;;;5076051;28;20048;-84
2021/08/13 09:02:42;;;;;;;1.40;0.98;;;21.40;82.70;;;;;;5075856;28;20039;-88
2021/08/13 09:05:08;;;;;;;1.15;1.05;;;21.50;82.70;;;;;;5076360;28;20024;-85
2021/08/13 09:07:34;;;;;;;1.45;1.20;;;21.40;82.60;;;;;;5076050;28;20056;-86
2021/08/13 09:10:00;;;;;;;1.67;1.20;;;21.40;82.80;;;;;;5075822;28;20040;-86
2021/08/13 09:12:26;;;;;;;1.20;1.10;;;21.50;82.90;;;;;;5075858;28;20481;-84
2021/08/13 09:14:51;;;;;;;1.05;0.75;;;21.70;82.70;;;;;;5076258;28;20025;-85
2021/08/13 09:17:26;;;;;;;1.90;1.20;;;21.80;82.50;;;;;;5075750;28;20469;-83
2021/08/13 09:19:53;;;;;;;1.45;1.35;;;21.90;82.30;;;;;;5076103;28;20021;-86
2021/08/13 09:22:22;;;;;;;1.58;1.20;;;21.90;82.30;;;;;;5057343;28;20048;-84
2021/08/13 09:24:50;;;;;;;1.75;1.55;;;21.90;82.20;;;;;;5075707;28;20020;-84
2021/08/13 09:27:27;;;;;;;1.77;1.60;;;22.00;82.30;;;;;;5075462;28;20059;-84
2021/08/13 09:30:06;;;;;;;1.50;1.33;;;22.10;81.80;;;;;;5075520;28;20036;-85
2021/08/13 09:32:32;;;;;;;1.38;1.27;;;22.10;81.90;;;;;;5075541;28;20023;-86
2021/08/13 09:34:58;;;;;;;1.98;1.52;;;22.10;82.10;;;;;;5075384;28;20025;-82
2021/08/13 09:37:23;;;;;;;1.40;0.98;;;22.20;81.90;;;;;;5075017;28;20033;-83
2021/08/13 09:39:56;;;;;;;1.95;1.45;;;22.20;81.70;;;;;;5057602;28;20020;-84
2021/08/13 09:42:38;;;;;;;1.45;1.13;;;22.30;81.50;;;;;;5075341;28;20036;-81
2021/08/13 09:45:09;;;;;;;2.13;1.52;;;22.30;81.40;;;;;;5075351;28;20028;-82
2021/08/13 09:47:52;;;;;;;1.33;1.02;;;22.30;81.60;;;;;;5075433;28;20025;-85
2021/08/13 09:50:31;;;;;;;1.38;1.27;;;22.40;81.50;;;;;;5057082;28;20465;-79
2021/08/13 09:53:11;;;;;;;1.17;1.08;;;22.40;81.30;;;;;;5074491;28;20025;-80
2021/08/13 09:55:37;;;;;;;1.25;1.08;;;22.50;81.10;;;;;;5056814;28;20518;-85
2021/08/13 09:58:02;;;;;;;0.95;0.93;;;22.40;81.20;;;;;;5074764;28;20092;-84
2021/08/13 10:00:28;;;;;;;0.85;0.85;;;22.50;81.00;;;;;;5074709;28;20473;-81
2021/08/13 10:03:04;;;;;;;1.75;1.35;;;22.40;80.90;;;;;;5074363;28;20079;-81
2021/08/13 10:05:30;;;;;;;1.45;1.00;;;22.30;81.10;;;;;;5074958;28;20016;-84
2021/08/13 10:07:59;;;;;;;1.23;1.13;;;22.10;81.40;;;;;;5056404;28;20023;-84
2021/08/13 10:10:29;;;;;;;;;;;22.10;81.60;;;;;;5074778;28;20027;-82
2021/08/13 10:12:58;;;;;;;1.33;1.10;;;22.00;81.80;;;;;;5074350;28;19911;-82
2021/08/13 10:15:39;;;;;;;1.98;1.35;;;22.20;81.40;;;;;;5074182;28;20031;-83
2021/08/13 10:18:15;;;;;;;0.90;0.75;;;22.30;80.80;;;;;;5074665;28;20032;-85
2021/08/13 10:20:42;;;;;;;0.80;0.80;;;22.30;80.80;;;;;;5073879;28;20116;-87
2021/08/13 10:23:09;;;;;;;1.10;1.00;;;22.40;80.60;;;;;;5056620;28;20131;-85
2021/08/13 10:25:38;;;;;;;1.08;0.60;;;22.40;80.40;;;;;;5074315;28;20024;-85
2021/08/13 10:28:04;;;;;;;3.50;1.20;;;22.50;80.30;;;;;;5074049;28;20024;-82
2021/08/13 10:30:30;;;;;;;0.80;0.80;;;22.40;80.20;;;;;;5074237;28;20020;-84
2021/08/13 10:32:58;;;;;;;1.55;1.20;;;22.40;80.20;;;;;;5074231;28;20421;-80
2021/08/13 10:35:29;;;;;;;1.25;1.10;;;22.40;80.00;;;;;;5073650;28;20048;-83
2021/08/13 10:37:58;;;;;;;1.52;1.10;;;22.40;79.70;;;;;;5074334;28;20028;-85
2021/08/13 10:40:24;;;;;;;1.17;0.98;;;22.40;79.90;;;;;;5074022;28;20025;-82
2021/08/13 10:42:51;;;;;;;1.35;1.20;;;22.50;79.80;;;;;;5073784;28;20040;-81
2021/08/13 10:45:25;;;;;;;1.15;1.05;;;22.50;79.60;;;;;;5073745;28;20008;-85
2021/08/13 10:48:20;;;;;;;0.82;0.82;;;22.60;79.50;;;;;;5073837;28;20099;-84
2021/08/13 10:50:46;;;;;;;1.52;1.10;;;22.60;79.70;;;;;;5073477;28;20078;-81
2021/08/13 10:53:32;;;;;;;1.13;0.80;;;22.50;79.50;;;;;;5073939;28;20016;-85
2021/08/13 10:56:00;;;;;;;1.90;1.08;;;22.50;79.60;;;;;;5073868;28;20024;-83
2021/08/13 10:58:41;;;;;;;1.73;1.10;;;22.50;79.60;;;;;;5073113;28;20108;-83
2021/08/13 11:01:07;;;;;;;2.08;1.10;;;22.70;79.30;;;;;;5055739;28;20083;-82
2021/08/13 11:03:37;;;;;;;1.13;0.95;;;22.90;78.90;;;;;;5074215;28;20062;-83
2021/08/13 11:06:04;;;;;;;1.25;1.05;;;23.10;78.40;;;;;;5073599;28;20351;-82
2021/08/13 11:08:41;;;;;;;1.67;0.93;;;23.20;78.20;;;;;;5073676;28;20024;-84
2021/08/13 11:11:11;;;;;;;1.23;1.00;;;23.40;78.10;;;;;;5073735;28;20103;-85
2021/08/13 11:13:38;;;;;;;1.17;1.08;;;23.50;78.10;;;;;;5073965;28;20100;-86
2021/08/13 11:16:29;;;;;;;1.75;1.50;;;23.50;77.90;;;;;;5073721;28;20028;-82
2021/08/13 11:18:56;;;;;;;1.55;0.90;;;23.40;78.10;;;;;;5072946;28;20521;-84
2021/08/13 11:21:40;;;;;;;1.02;0.93;;;23.30;78.30;;;;;;5073454;28;20501;-81
2021/08/13 11:24:10;;;;;;;0.98;0.80;;;23.40;78.00;;;;;;5073364;28;20044;-83
2021/08/13 11:26:50;;;;;;;;;;;23.50;77.70;;;;;;5073865;28;20021;-85
2021/08/13 11:29:33;;;;;;;0.57;0.57;;;23.60;77.90;;;;;;5073473;28;20004;-82
2021/08/13 11:32:20;;;;;;;1.40;1.20;;;23.80;77.30;;;;;;5073410;28;20469;-84
2021/08/13 11:34:58;;;;;;;0.43;0.40;;;23.80;76.90;;;;;;5054975;28;20073;-82
2021/08/13 11:37:41;;;;;;;0.55;0.50;;;23.80;77.10;;;;;;5073399;28;20396;-83
2021/08/13 11:40:26;;;;;;;1.50;0.70;;;23.60;77.20;;;;;;5073359;28;20107;-82
2021/08/13 11:42:54;;;;;;;0.65;0.65;;;23.60;77.60;;;;;;5072993;28;20036;-81
2021/08/13 11:45:20;;;;;;;0.73;0.73;;;23.60;77.60;;;;;;5073266;28;20031;-86
2021/08/13 11:47:48;;;;;;;0.88;0.70;;;23.60;77.30;;;;;;5072757;28;20021;-87
2021/08/13 11:50:14;;;;;;;1.88;1.08;;;23.90;76.80;;;;;;5056280;28;20021;-85
2021/08/13 11:52:50;;;;;;;1.05;0.98;;;24.20;76.00;;;;;;5074573;28;20034;-81
2021/08/13 11:55:24;;;;;;;3.13;0.82;;;24.20;75.90;;;;;;5056367;28;20020;-86
2021/08/13 11:57:51;;;;;;;0.70;0.70;;;24.20;75.80;;;;;;5059038;28;20017;-82
2021/08/13 12:00:18;;;;;;;1.08;0.85;;;24.00;76.10;;;;;;5072950;28;20045;-80
2021/08/13 12:02:43;;;;;;;0.90;0.70;;;23.90;76.30;;;;;;5072317;28;20143;-82
2021/08/13 12:05:11;;;;;;;1.00;0.90;;;24.00;76.20;;;;;;5073021;28;20541;-81
2021/08/13 12:07:37;;;;;;;0.30;0.30;;;24.00;75.80;;;;;;5072793;28;20025;-82
2021/08/13 12:10:16;;;;;;;0.73;0.60;;;24.10;76.20;;;;;;5075308;28;20384;-81
2021/08/13 12:12:43;;;;;;;0.82;0.50;;;24.30;75.50;;;;;;5076505;28;20040;-86
2021/08/13 12:15:10;;;;;;;0.82;0.50;;;24.40;75.20;;;;;;5076730;28;20020;-80
2021/08/13 12:17:36;;;;;;;0.50;0.50;;;24.50;74.90;;;;;;5058329;28;20377;-85
2021/08/13 12:20:05;;;;;;;0.80;0.60;;;24.80;74.10;;;;;;5076591;28;20048;-81
2021/08/13 12:22:35;;;;;;;1.15;0.65;;;25.00;73.90;;;;;;5058405;28;20493;-84
2021/08/13 12:25:04;;;;;;;1.27;0.70;;;25.30;73.70;;;;;;5076695;28;20020;-79
2021/08/13 12:27:32;;;;;;;0.40;0.40;;;25.50;73.40;;;;;;5076314;28;20397;-80
2021/08/13 12:29:59;;;;;;;0.45;0.45;;;25.60;73.40;;;;;;5076389;28;20263;-81
2021/08/13 12:32:38;;;;;;;0.43;0.43;;;25.60;73.30;;;;;;5075945;28;20089;-77
2021/08/13 12:35:09;;;;;;;1.00;0.40;;;25.40;73.20;;;;;;5076261;28;20020;-83
2021/08/13 12:37:36;;;;;;;0.57;0.50;;;25.10;73.60;;;;;;5076271;28;20028;-80
2021/08/13 12:40:03;;;;;;;0.40;0.35;;;24.80;73.90;;;;;;5076168;28;20024;-80
2021/08/13 12:42:29;;;;;;;0.85;0.50;;;24.50;74.20;;;;;;5076319;28;20044;-82
2021/08/13 12:44:55;;;;;;;0.40;0.40;;;24.40;74.50;;;;;;5058237;28;20477;-79
2021/08/13 12:47:21;;;;;;;1.33;0.50;;;24.50;74.10;;;;;;5075742;28;20077;-83
2021/08/13 12:49:47;;;;;;;0.38;0.38;;;24.50;73.90;;;;;;5076028;28;20027;-85
2021/08/13 12:52:21;;;;;;;1.00;0.47;;;24.50;73.70;;;;;;5058581;28;20028;-84